Flight Track Log - Related Links

Times and Time Zones

All times are in EDT time to prevent confusion due to time zone crossing. See the DAL1979 flight status page for this flight to view local times or setup timezone preferences in your user account.

Time Position Orientation Groundspeed Altitude Reporting Facility
EDT Latitude Longitude Course Direction KTS MPH feet Rate Location/Type
Mon 04:05:00 PM 28.4167 -81.8655 270° West  Level FlightAware Approximate
Mon 04:06:00 PM 28.4167 -82.0069 270° West  Level FlightAware Approximate
Mon 04:06:22 PM 28.3490 -81.6100 270° West 301 346 10,100  Level FlightAware ADS-B
Mon 04:06:52 PM 28.3630 -81.6550 289° West 324 373 10,800 1,800 Climbing FlightAware ADS-B
Mon 04:07:32 PM 28.3820 -81.7190 289° West 332 382 12,200 2,250 Climbing FlightAware ADS-B
Mon 04:08:12 PM 28.4010 -81.7870 288° West 339 390 13,800 2,100 Climbing FlightAware ADS-B
Mon 04:08:52 PM 28.4210 -81.8540 289° West 349 402 15,000 2,000 Climbing FlightAware ADS-B
Mon 04:09:27 PM 28.4430 -81.9210 290° West 357 411 16,300 1,818 Climbing FlightAware ADS-B
Mon 04:11:37 PM 28.5190 -82.1510 291° West 366 421 20,000 1,624 Climbing FlightAware ADS-B
Mon 04:12:17 PM 28.5460 -82.2240 293° West 375 432 20,900 1,350 Climbing FlightAware ADS-B
Mon 04:12:57 PM 28.5870 -82.2860 307° West 379 436 21,800 1,275 Climbing FlightAware ADS-B
Mon 04:13:37 PM 28.6300 -82.3510 307° West 385 443 22,600 1,275 Climbing FlightAware ADS-B
Mon 04:14:17 PM 28.6710 -82.4150 306° West 392 451 23,500 1,125 Climbing FlightAware ADS-B
Mon 04:14:57 PM 28.7170 -82.4870 306° West 410 472 24,100 565 Climbing FlightAware ADS-B
Mon 04:15:42 PM 28.7640 -82.5600 306° West 437 503 24,300 424 Climbing FlightAware ADS-B
Mon 04:16:22 PM 28.8170 -82.6420 306° West 455 524 24,700 939 Climbing FlightAware ADS-B
Mon 04:17:37 PM 28.9450 -82.7330 328° Northwest 466 536 26,100 783 Climbing FlightAware ADS-B
Mon 04:18:17 PM 29.0160 -82.7760 332° Northwest 466 536 26,200 675 Climbing FlightAware ADS-B
Mon 04:18:57 PM 29.0990 -82.8250 333° Northwest 470 541 27,000 1,200 Climbing FlightAware ADS-B
Mon 04:20:07 PM 29.2350 -82.9040 333° Northwest 485 558 28,400 1,071 Climbing FlightAware ADS-B
Mon 04:21:17 PM 29.3770 -82.9890 332° Northwest 475 547 29,500 600 Climbing FlightAware ADS-B
Mon 04:21:57 PM 29.4430 -83.0290 332° Northwest 475 547 29,500  Level FlightAware ADS-B
Mon 04:22:37 PM 29.5090 -83.0690 332° Northwest 475 547 29,500 1,750 Level FlightAware ADS-B
Mon 04:23:57 PM 29.6900 -83.1740 333° Northwest 469 540 33,000 1,800 Climbing FlightAware ADS-B
Mon 04:24:37 PM 29.7610 -83.2170 332° Northwest 468 539 33,100 923 Climbing FlightAware ADS-B
Mon 04:25:02 PM 29.8150 -83.2480 334° Northwest 456 525 34,000 720 Climbing FlightAware ADS-B
Mon 04:25:52 PM 29.9050 -83.3020 333° Northwest 451 519 34,000  Level FlightAware ADS-B
Mon 04:26:32 PM 29.9840 -83.3490 333° Northwest 453 521 34,000  Level FlightAware ADS-B
Mon 04:27:17 PM 30.0610 -83.3960 332° Northwest 453 521 34,000  Level FlightAware ADS-B
Mon 04:28:02 PM 30.1610 -83.4550 333° Northwest 453 521 34,000  Level FlightAware ADS-B
Mon 04:28:37 PM 30.2230 -83.4930 332° Northwest 453 521 34,000  Level FlightAware ADS-B
Mon 04:29:12 PM 30.2910 -83.5330 333° Northwest 460 529 34,000  Level FlightAware ADS-B
Mon 04:29:57 PM 30.3670 -83.6020 322° Northwest 451 519 34,000  Level FlightAware ADS-B
Mon 04:30:37 PM 30.4210 -83.6640 315° West 451 519 34,000 632 Level FlightAware ADS-B
Mon 04:31:32 PM 30.5120 -83.7650 316° Northwest 448 516 35,000 1,050 Climbing FlightAware ADS-B
Mon 04:31:57 PM 30.5460 -83.8030 316° Northwest 445 512 35,400 771 Climbing FlightAware ADS-B
Mon 04:32:42 PM 30.6090 -83.8850 312° West 444 511 35,900 514 Climbing FlightAware ADS-B
Mon 04:33:07 PM 30.6450 -83.9310 312° West 444 511 36,000 75 Climbing FlightAware ADS-B
Mon 04:34:02 PM 30.7210 -84.0320 311° West 444 511 36,000  Level FlightAware ADS-B
Mon 04:34:32 PM 30.7590 -84.0830 311° West 445 512 36,000  Level FlightAware ADS-B
Mon 04:35:17 PM 30.8200 -84.1630 312° West 444 511 36,000  Level FlightAware ADS-B
Mon 04:35:57 PM 30.8730 -84.2340 311° West 443 510 36,000  Level FlightAware ADS-B
Mon 04:36:57 PM 30.9630 -84.3230 320° Northwest 441 507 36,000  Level FlightAware ADS-B
Mon 04:37:37 PM 31.0320 -84.3740 328° Northwest 441 507 36,000  Level FlightAware ADS-B
Mon 04:38:17 PM 31.1120 -84.4260 331° Northwest 441 507 36,000  Level FlightAware ADS-B
Mon 04:39:02 PM 31.1860 -84.4680 334° Northwest 441 507 36,000  Level FlightAware ADS-B
Mon 04:39:42 PM 31.2480 -84.5040 334° Northwest 441 507 36,000  Level FlightAware ADS-B
Mon 04:40:22 PM 31.1540 -84.4520 155° Southeast 442 509 36,000  Level FlightAware ADS-B
Mon 04:41:07 PM 31.1690 -84.4620 330° Northwest 442 509 36,000  Level FlightAware ADS-B
Mon 04:41:47 PM 31.2310 -84.5000 332° Northwest 442 509 36,000  Level FlightAware ADS-B
Mon 04:42:17 PM 31.2770 -84.5290 332° Northwest 442 509 36,000  Level FlightAware ADS-B
Mon 04:43:07 PM 31.3530 -84.5760 332° Northwest 442 509 36,000  Level FlightAware ADS-B
Mon 04:43:37 PM 31.3990 -84.6050 332° Northwest 442 509 36,000  Level FlightAware ADS-B
Mon 04:44:17 PM 31.4610 -84.6430 332° Northwest 442 509 36,000  Level FlightAware ADS-B
Mon 04:44:47 PM 31.5070 -84.6720 332° Northwest 442 509 36,000  Level FlightAware ADS-B
Mon 04:45:27 PM 31.5680 -84.7100 332° Northwest 442 509 36,000  Level FlightAware ADS-B
Mon 04:46:07 PM 31.6300 -84.7490 332° Northwest 442 509 36,000  Level FlightAware ADS-B
Mon 04:46:47 PM 31.6910 -84.7870 332° Northwest 442 509 36,000  Level FlightAware ADS-B
Mon 04:47:27 PM 31.7520 -84.8250 332° Northwest 442 509 36,000  Level FlightAware ADS-B
Mon 04:47:57 PM 31.7980 -84.8540 332° Northwest 442 509 36,000 -146 Level FlightAware ADS-B
Mon 04:50:52 PM 32.5090 -85.2520 335° Northwest 449 517 35,500 -293 Descending FlightAware ADS-B
Mon 04:51:22 PM 32.5640 -85.2860 332° Northwest 451 519 35,000 -500 Descending FlightAware ADS-B
Mon 04:51:52 PM 32.6180 -85.3180 333° Northwest 455 524 35,000  Level FlightAware ADS-B
Mon 04:52:37 PM 32.7000 -85.3690 332° Northwest 460 529 35,000 -282 Level FlightAware ADS-B
Mon 04:53:17 PM 32.7770 -85.4160 333° Northwest 457 526 34,600 -706 Descending FlightAware ADS-B
Mon 04:54:02 PM 32.8660 -85.4700 333° Northwest 455 524 34,000 -424 Descending FlightAware ADS-B
Mon 04:54:42 PM 32.9400 -85.5160 332° Northwest 456 525 34,000  Level FlightAware ADS-B
Mon 04:55:22 PM 33.0140 -85.5620 332° Northwest 462 532 34,000  Level FlightAware ADS-B
Mon 04:56:12 PM 33.1100 -85.6210 333° Northwest 461 531 34,000  Level FlightAware ADS-B
Mon 04:56:47 PM 33.1760 -85.6620 333° Northwest 462 532 34,000  Level FlightAware ADS-B
Mon 04:57:32 PM 33.2630 -85.7160 333° Northwest 462 532 34,000  Level FlightAware ADS-B
Mon 04:58:02 PM 33.3190 -85.7510 332° Northwest 462 532 34,000  Level FlightAware ADS-B
Mon 04:58:42 PM 33.3940 -85.7980 332° Northwest 461 531 34,000  Level FlightAware ADS-B
Mon 04:59:02 PM 33.4320 -85.8210 333° Northwest 461 531 34,000  Level FlightAware ADS-B
Mon 04:59:42 PM 33.5080 -85.8690 332° Northwest 458 527 34,000  Level FlightAware ADS-B
Mon 05:00:32 PM 33.5960 -85.9240 333° Northwest 456 525 34,000  Level FlightAware ADS-B
Mon 05:01:22 PM 33.6970 -85.9870 333° Northwest 454 522 34,000  Level FlightAware ADS-B
Mon 05:01:57 PM 33.7590 -86.0270 332° Northwest 453 521 34,000  Level FlightAware ADS-B
Mon 05:02:47 PM 33.8490 -86.0840 332° Northwest 453 521 34,000  Level FlightAware ADS-B
Mon 05:03:27 PM 33.9307 -86.1350 333° Northwest 454 522 34,000  Level FlightAware ADS-B
Mon 05:03:59 PM 33.9908 -86.1731 332° Northwest 454 522 34,000  Level FlightAware ADS-B
Mon 05:04:47 PM 34.0380 -86.2050 331° Northwest 453 521 34,000  Level FlightAware ADS-B
Mon 05:05:27 PM 34.1010 -86.2450 332° Northwest 453 521 34,000  Level FlightAware ADS-B
Mon 05:05:38 PM 34.1751 -86.2905 333° Northwest 458 527 34,000  Level FlightAware ADS-B
Mon 05:06:10 PM 34.2358 -86.3294 332° Northwest 460 529 34,000  Level FlightAware ADS-B
Mon 05:06:45 PM 34.3021 -86.3718 332° Northwest 461 531 34,000  Level FlightAware ADS-B
Mon 05:07:16 PM 34.3602 -86.4092 332° Northwest 461 531 34,000  Level FlightAware ADS-B
Mon 05:08:22 PM 34.4550 -86.4700 332° Northwest 462 532 34,000  Level FlightAware ADS-B
Mon 05:09:28 PM 34.5225 -86.5135 332° Northwest 461 531 34,000  Level FlightAware ADS-B
Mon 05:10:10 PM 34.6881 -86.6205 332° Northwest 460 529 34,000  Level FlightAware ADS-B
Mon 05:10:42 PM 34.7481 -86.6594 332° Northwest 458 527 34,000  Level FlightAware ADS-B
Mon 05:11:13 PM 34.8049 -86.6963 332° Northwest 457 526 34,000  Level FlightAware ADS-B
Mon 05:11:53 PM 34.8802 -86.7454 332° Northwest 457 526 34,000  Level FlightAware ADS-B
Mon 05:12:33 PM 34.9543 -86.7937 332° Northwest 458 527 34,000  Level FlightAware ADS-B
Mon 05:13:07 PM 35.0187 -86.8358 332° Northwest 459 528 34,000  Level FlightAware ADS-B
Mon 05:13:50 PM 35.0994 -86.8886 332° Northwest 460 529 34,000  Level FlightAware ADS-B
Mon 05:14:21 PM 35.1572 -86.9265 332° Northwest 460 529 34,000  Level FlightAware ADS-B
Mon 05:15:17 PM 35.2560 -86.9910 332° Northwest 459 528 34,000  Level FlightAware ADS-B
Mon 05:15:24 PM 35.2754 -87.0044 331° Northwest 459 528 34,000  Level FlightAware ADS-B
Mon 05:15:55 PM 35.3329 -87.0421 332° Northwest 458 527 34,000  Level FlightAware ADS-B
Mon 05:16:42 PM 35.4170 -87.0980 332° Northwest 457 526 34,000  Level FlightAware ADS-B
Mon 05:17:27 PM 35.4990 -87.1520 332° Northwest 455 524 34,000  Level FlightAware ADS-B
Mon 05:18:12 PM 35.5840 -87.2080 332° Northwest 456 525 34,000  Level FlightAware ADS-B
Mon 05:18:47 PM 35.6500 -87.2530 331° Northwest 456 525 34,000  Level FlightAware ADS-B
Mon 05:19:22 PM 35.7140 -87.2950 332° Northwest 456 525 34,000  Level FlightAware ADS-B
Mon 05:20:07 PM 35.8000 -87.3530 331° Northwest 457 526 34,000  Level FlightAware ADS-B
Mon 05:20:47 PM 35.8760 -87.4030 332° Northwest 459 528 34,000  Level FlightAware ADS-B
Mon 05:21:32 PM 35.9570 -87.4580 331° Northwest 460 529 34,000  Level FlightAware ADS-B
Mon 05:22:12 PM 36.0320 -87.5080 332° Northwest 461 531 34,000  Level FlightAware ADS-B
Mon 05:22:57 PM 36.1200 -87.5670 332° Northwest 461 531 34,000  Level FlightAware ADS-B
Mon 05:23:37 PM 36.1940 -87.6170 331° Northwest 463 533 34,000  Level FlightAware ADS-B
Mon 05:24:17 PM 36.2690 -87.6680 331° Northwest 464 534 34,000  Level FlightAware ADS-B
Mon 05:24:52 PM 36.3330 -87.7110 332° Northwest 464 534 34,000  Level FlightAware ADS-B
Mon 05:25:42 PM 36.4280 -87.7760 331° Northwest 465 535 34,000  Level FlightAware ADS-B
Mon 05:26:22 PM 36.5040 -87.8280 331° Northwest 468 539 34,000  Level FlightAware ADS-B
Mon 05:27:07 PM 36.5830 -87.8820 331° Northwest 468 539 34,000  Level FlightAware ADS-B
Mon 05:28:02 PM 36.6940 -87.9580 331° Northwest 471 542 34,000  Level FlightAware ADS-B
Mon 05:28:57 PM 36.8010 -88.0320 331° Northwest 473 544 34,000  Level FlightAware ADS-B
Mon 05:29:42 PM 36.8870 -88.0900 332° Northwest 474 545 34,000  Level FlightAware ADS-B
Mon 05:30:17 PM 36.9550 -88.1370 331° Northwest 474 545 34,000  Level FlightAware ADS-B
Mon 05:31:07 PM 37.0480 -88.2020 331° Northwest 473 544 34,000  Level FlightAware ADS-B
Mon 05:31:47 PM 37.1160 -88.2490 331° Northwest 473 544 34,000  Level FlightAware ADS-B
Mon 05:32:17 PM 37.1650 -88.2830 331° Northwest 473 544 34,000  Level FlightAware ADS-B
Mon 05:32:57 PM 37.2620 -88.3500 331° Northwest 473 544 34,000  Level FlightAware ADS-B
Mon 05:33:32 PM 37.3220 -88.3920 331° Northwest 474 545 34,000  Level FlightAware ADS-B
Mon 05:34:22 PM 37.4340 -88.4390 342° North 482 555 34,000  Level FlightAware ADS-B
Mon 05:35:02 PM 37.5190 -88.4640 347° North 483 556 34,000  Level FlightAware ADS-B
Mon 05:35:47 PM 37.6140 -88.4990 344° North 481 554 34,000  Level FlightAware ADS-B
Mon 05:36:27 PM 37.6970 -88.5520 333° Northwest 479 551 34,000  Level FlightAware ADS-B
Mon 05:37:07 PM 37.7750 -88.6090 330° Northwest 479 551 34,000  Level FlightAware ADS-B
Mon 05:37:52 PM 37.8590 -88.6710 330° Northwest 479 551 34,000  Level FlightAware ADS-B
Mon 05:38:22 PM 37.9160 -88.7120 330° Northwest 478 550 34,000  Level FlightAware ADS-B
Mon 05:39:02 PM 37.9920 -88.7680 330° Northwest 479 551 34,000  Level FlightAware ADS-B
Mon 05:39:42 PM 38.0690 -88.8250 330° Northwest 479 551 34,000  Level FlightAware ADS-B
Mon 05:40:22 PM 38.1380 -88.8750 330° Northwest 478 550 34,000  Level FlightAware ADS-B
Mon 05:40:57 PM 38.2110 -88.9280 330° Northwest 476 548 34,000  Level FlightAware ADS-B
Mon 05:41:47 PM 38.3060 -89.0000 329° Northwest 476 548 34,000  Level FlightAware ADS-B
Mon 05:42:27 PM 38.3700 -89.0490 329° Northwest 476 548 34,000  Level FlightAware ADS-B
Mon 05:43:27 PM 38.4990 -89.1410 331° Northwest 476 548 34,000  Level FlightAware ADS-B
Mon 05:44:07 PM 38.5730 -89.1960 330° Northwest 478 550 34,000  Level FlightAware ADS-B
Mon 05:45:07 PM 38.6830 -89.2790 330° Northwest 479 551 34,000  Level FlightAware ADS-B
Mon 05:45:47 PM 38.7480 -89.3290 329° Northwest 479 551 34,000  Level FlightAware ADS-B
Mon 05:46:27 PM 38.8420 -89.3960 331° Northwest 478 550 34,000  Level FlightAware ADS-B
Mon 05:47:12 PM 38.9240 -89.4580 330° Northwest 478 550 34,000  Level FlightAware ADS-B
Mon 05:47:52 PM 39.0070 -89.5200 330° Northwest 477 549 34,000  Level FlightAware ADS-B
Mon 05:48:27 PM 39.0700 -89.5680 329° Northwest 477 549 34,000  Level FlightAware ADS-B
Mon 05:49:07 PM 39.1460 -89.6250 330° Northwest 475 547 34,000  Level FlightAware ADS-B
Mon 05:49:52 PM 39.2220 -89.6840 329° Northwest 475 547 34,000  Level FlightAware ADS-B
Mon 05:50:42 PM 39.3290 -89.7640 330° Northwest 475 547 34,000  Level FlightAware ADS-B
Mon 05:51:22 PM 39.4070 -89.8230 330° Northwest 475 547 34,000  Level FlightAware ADS-B
Mon 05:52:02 PM 39.4760 -89.8760 329° Northwest 475 547 34,000  Level FlightAware ADS-B
Mon 05:52:42 PM 39.5490 -89.9320 329° Northwest 475 547 34,000  Level FlightAware ADS-B
Mon 05:53:22 PM 39.6330 -89.9960 330° Northwest 475 547 34,000  Level FlightAware ADS-B
Mon 05:54:12 PM 39.7240 -90.0660 329° Northwest 477 549 34,000  Level FlightAware ADS-B
Mon 05:54:42 PM 39.7850 -90.1130 329° Northwest 478 550 34,000  Level FlightAware ADS-B
Mon 05:55:22 PM 39.8610 -90.1720 329° Northwest 479 551 34,000  Level FlightAware ADS-B
Mon 05:56:07 PM 39.9470 -90.2380 330° Northwest 479 551 34,000  Level FlightAware ADS-B
Mon 05:56:37 PM 40.0050 -90.2830 329° Northwest 481 554 34,000  Level FlightAware ADS-B
Mon 05:57:22 PM 40.0840 -90.3460 329° Northwest 481 554 34,000  Level FlightAware ADS-B
Mon 05:58:12 PM 40.1880 -90.4270 329° Northwest 480 552 34,000  Level FlightAware ADS-B
Mon 05:58:52 PM 40.2580 -90.4820 329° Northwest 480 552 34,000  Level FlightAware ADS-B
Mon 05:59:27 PM 40.3290 -90.5370 329° Northwest 482 555 34,000  Level FlightAware ADS-B
Mon 06:00:17 PM 40.4240 -90.6120 329° Northwest 483 556 34,000  Level FlightAware ADS-B
Mon 06:00:57 PM 40.4980 -90.6710 329° Northwest 485 558 34,000  Level FlightAware ADS-B
Mon 06:01:42 PM 40.5890 -90.7430 329° Northwest 486 559 34,000  Level FlightAware ADS-B
Mon 06:02:22 PM 40.6600 -90.8000 329° Northwest 486 559 34,000  Level FlightAware ADS-B
Mon 06:03:02 PM 40.7350 -90.8590 329° Northwest 487 560 34,000  Level FlightAware ADS-B
Mon 06:03:47 PM 40.8270 -90.9330 329° Northwest 488 562 34,000  Level FlightAware ADS-B
Mon 06:04:42 PM 40.9310 -91.0170 329° Northwest 490 564 34,000  Level FlightAware ADS-B
Mon 06:05:27 PM 41.0230 -91.0910 329° Northwest 492 566 34,000  Level FlightAware ADS-B
Mon 06:06:17 PM 41.1150 -91.1670 328° Northwest 492 566 34,000  Level FlightAware ADS-B
Mon 06:07:02 PM 41.2100 -91.2430 329° Northwest 492 566 34,000  Level FlightAware ADS-B
Mon 06:07:47 PM 41.2950 -91.3130 328° Northwest 491 565 34,000  Level FlightAware ADS-B
Mon 06:08:27 PM 41.3720 -91.3760 328° Northwest 490 564 34,000 -150 Level FlightAware ADS-B
Mon 06:09:07 PM 41.4510 -91.4410 328° Northwest 487 560 33,800 -635 Descending FlightAware ADS-B
Mon 06:09:52 PM 41.5350 -91.5100 328° Northwest 478 550 33,100 -1,040 Descending FlightAware ADS-B
Mon 06:10:22 PM 41.5850 -91.5520 328° Northwest 482 555 32,500 -480 Descending FlightAware ADS-B
Mon 06:11:07 PM 41.6640 -91.6180 328° Northwest 482 555 32,500 -1,074 Level FlightAware ADS-B
Mon 06:11:57 PM 41.7690 -91.7050 328° Northwest 481 554 30,800 -1,667 Descending FlightAware ADS-B
Mon 06:12:37 PM 41.8490 -91.7710 328° Northwest 482 555 30,000 -825 Descending FlightAware ADS-B
Mon 06:13:17 PM 41.9170 -91.8300 327° Northwest 482 555 29,700 -1,059 Descending FlightAware ADS-B
Mon 06:14:02 PM 42.0070 -91.9040 329° Northwest 479 551 28,500 -1,020 Descending FlightAware ADS-B
Mon 06:14:57 PM 42.1050 -91.9880 328° Northwest 479 551 28,000 -300 Descending FlightAware ADS-B
Mon 06:15:42 PM 42.1920 -92.0600 328° Northwest 479 551 28,000  Level FlightAware ADS-B
Mon 06:16:22 PM 42.2680 -92.1250 328° Northwest 476 548 28,000  Level FlightAware ADS-B
Mon 06:17:02 PM 42.3440 -92.1900 328° Northwest 476 548 28,000  Level FlightAware ADS-B
Mon 06:17:47 PM 42.4280 -92.2610 328° Northwest 474 545 28,000  Level FlightAware ADS-B
Mon 06:18:27 PM 42.5010 -92.3240 328° Northwest 473 544 28,000  Level FlightAware ADS-B
Mon 06:19:12 PM 42.5860 -92.3980 327° Northwest 472 543 28,000  Level FlightAware ADS-B
Mon 06:19:52 PM 42.6590 -92.4630 327° Northwest 470 541 28,000  Level FlightAware ADS-B
Mon 06:20:32 PM 42.7320 -92.5320 325° Northwest 471 542 28,000  Level FlightAware ADS-B
Mon 06:21:17 PM 42.8110 -92.6050 326° Northwest 473 544 28,000  Level FlightAware ADS-B
Mon 06:21:57 PM 42.8830 -92.6720 326° Northwest 474 545 28,000  Level FlightAware ADS-B
Mon 06:22:42 PM 42.9650 -92.7480 326° Northwest 474 545 28,000  Level FlightAware ADS-B
Mon 06:23:22 PM 43.0400 -92.8180 326° Northwest 474 545 28,000  Level FlightAware ADS-B
Mon 06:24:07 PM 43.1190 -92.8920 326° Northwest 474 545 28,000 -282 Level FlightAware ADS-B
Mon 06:24:47 PM 43.1910 -92.9590 326° Northwest 471 542 27,600 -1,125 Descending FlightAware ADS-B
Mon 06:25:27 PM 43.2630 -93.0270 325° Northwest 470 541 26,500 -1,694 Descending FlightAware ADS-B
Mon 06:26:12 PM 43.3440 -93.1040 325° Northwest 461 531 25,200 -1,694 Descending FlightAware ADS-B
Mon 06:26:52 PM 43.4140 -93.1700 326° Northwest 447 514 24,100 -900 Descending FlightAware ADS-B
Mon 06:27:32 PM 43.4820 -93.2350 325° Northwest 443 510 24,000 -847 Descending FlightAware ADS-B
Mon 06:28:17 PM 43.5620 -93.2900 334° Northwest 456 525 22,900 -2,047 Descending FlightAware ADS-B
Mon 06:28:57 PM 43.6440 -93.2900 360° North 459 528 21,100 -2,682 Descending FlightAware ADS-B
Mon 06:29:42 PM 43.7390 -93.2800 North 444 511 19,100 -2,682 Descending FlightAware ADS-B
Mon 06:30:22 PM 43.8250 -93.2710 North 432 497 17,300 -2,541 Descending FlightAware ADS-B
Mon 06:31:07 PM 43.9110 -93.2630 North 418 481 15,500 -2,471 Descending FlightAware ADS-B
Mon 06:31:47 PM 43.9890 -93.2550 North 409 471 13,800 -2,325 Descending FlightAware ADS-B
Mon 06:32:27 PM 44.0630 -93.2480 North 404 465 12,400 -1,835 Descending FlightAware ADS-B
Mon 06:33:12 PM 44.1480 -93.2400 North 383 441 11,200 -1,412 Descending FlightAware ADS-B
Mon 06:33:52 PM 44.2180 -93.2330 North 374 430 10,400 -635 Descending FlightAware ADS-B
Mon 06:34:37 PM 44.2940 -93.2250 North 386 444 10,300 -71 Descending FlightAware ADS-B
Mon 06:35:17 PM 44.3650 -93.2180 North 380 437 10,300  Level FlightAware ADS-B
Mon 06:35:57 PM 44.4360 -93.2110 North 379 436 10,300  Level FlightAware ADS-B
Mon 06:36:42 PM 44.5170 -93.2020 North 378 435 10,300  Level FlightAware ADS-B
Mon 06:37:22 PM 44.5860 -93.1950 North 381 438 10,300  Level FlightAware ADS-B
Mon 06:37:52 PM 44.6390 -93.1920 North 365 420 10,300  Level FlightAware ADS-B
Mon 06:38:32 PM 44.6990 -93.2150 345° North 308 354 10,300 -600 Level FlightAware ADS-B
Mon 06:39:02 PM 44.7380 -93.2390 336° Northwest 295 339 9,600 -1,600 Descending FlightAware ADS-B
Mon 06:39:17 PM 44.7540 -93.2500 334° Northwest 294 338 9,100 -1,650 Descending FlightAware ADS-B
Mon 06:39:42 PM 44.7860 -93.2700 336° Northwest 283 326 8,500 -873 Descending FlightAware ADS-B
Mon 06:40:12 PM 44.8210 -93.2920 336° Northwest 262 302 8,300 -267 Descending FlightAware ADS-B
Mon 06:40:27 PM 44.8360 -93.3030 333° Northwest 251 289 8,300 240 Level FlightAware ADS-B
Mon 06:40:37 PM 44.8440 -93.3140 316° Northwest 239 275 8,400 -750 Climbing FlightAware ADS-B
Mon 06:41:07 PM 44.8650 -93.3510 309° West 237 273 7,800 -1,400 Descending FlightAware ADS-B
Mon 06:41:37 PM 44.8840 -93.3850 308° West 219 252 7,000 -1,636 Descending FlightAware ADS-B
Mon 06:42:02 PM 44.9000 -93.4140 308° West 210 242 6,300 -1,964 Descending FlightAware ADS-B
Mon 06:42:32 PM 44.9200 -93.4450 312° West 222 255 5,200 -2,000 Descending FlightAware ADS-B
Mon 06:42:47 PM 44.9340 -93.4510 343° North 233 268 4,800 -1,200 Descending FlightAware ADS-B
Mon 06:43:12 PM 44.9580 -93.4340 27° Northeast 234 269 4,400 -900 Descending FlightAware ADS-B
Mon 06:43:27 PM 44.9640 -93.4140 67° East 229 264 4,200 -857 Descending FlightAware ADS-B
Mon 06:43:47 PM 44.9660 -93.3850 84° East 220 253 3,900 -1,091 Descending FlightAware ADS-B
Mon 06:44:22 PM 44.9530 -93.3430 114° Southeast 176 203 3,200 -1,200 Descending FlightAware ADS-B
Mon 06:44:52 PM 44.9410 -93.3160 122° Southeast 153 176 2,600 -1,091 Descending FlightAware ADS-B
Mon 06:45:17 PM 44.9320 -93.2950 121° Southeast 152 175 2,200 -873 Descending FlightAware ADS-B
Mon 06:45:47 PM 44.9220 -93.2710 120° Southeast 149 171 1,800 -800 Descending FlightAware ADS-B
Mon 06:46:17 PM 44.9110 -93.2450 121° Southeast 150 173 1,400 -800 Descending FlightAware ADS-B

Login

Don't have an account? Register now (free) for customized features, flight alerts, and more!